sensor_id;sensor_type;location;lat;lon;timestamp;P1;durP1;ratioP1;P2;durP2;ratioP2
76978;SDS011;65911;47.502;19.148;2023-05-19T00:00:04;3.45;;;2.00;;
76978;SDS011;65911;47.502;19.148;2023-05-19T00:03:11;3.25;;;2.13;;
76978;SDS011;65911;47.502;19.148;2023-05-19T00:06:14;3.95;;;2.05;;
76978;SDS011;65911;47.502;19.148;2023-05-19T00:09:17;3.87;;;2.03;;
76978;SDS011;65911;47.502;19.148;2023-05-19T00:12:19;4.05;;;2.10;;
76978;SDS011;65911;47.502;19.148;2023-05-19T00:15:22;4.72;;;2.00;;
76978;SDS011;65911;47.502;19.148;2023-05-19T00:18:24;2.23;;;1.90;;
76978;SDS011;65911;47.502;19.148;2023-05-19T00:21:27;3.70;;;2.35;;
76978;SDS011;65911;47.502;19.148;2023-05-19T00:24:30;3.15;;;1.95;;
76978;SDS011;65911;47.502;19.148;2023-05-19T00:27:32;2.33;;;2.13;;
76978;SDS011;65911;47.502;19.148;2023-05-19T00:30:35;2.70;;;2.38;;
76978;SDS011;65911;47.502;19.148;2023-05-19T00:33:37;3.95;;;2.08;;
76978;SDS011;65911;47.502;19.148;2023-05-19T00:36:39;5.30;;;2.50;;
76978;SDS011;65911;47.502;19.148;2023-05-19T00:39:41;3.87;;;2.27;;
76978;SDS011;65911;47.502;19.148;2023-05-19T00:42:44;3.40;;;2.47;;
76978;SDS011;65911;47.502;19.148;2023-05-19T00:45:46;2.85;;;2.25;;
76978;SDS011;65911;47.502;19.148;2023-05-19T00:48:48;7.87;;;2.43;;
76978;SDS011;65911;47.502;19.148;2023-05-19T00:51:50;3.10;;;1.98;;
76978;SDS011;65911;47.502;19.148;2023-05-19T00:54:53;3.85;;;2.47;;
76978;SDS011;65911;47.502;19.148;2023-05-19T00:57:56;2.95;;;2.20;;
76978;SDS011;65911;47.502;19.148;2023-05-19T01:00:59;3.88;;;2.17;;
76978;SDS011;65911;47.502;19.148;2023-05-19T01:04:05;3.47;;;2.17;;
76978;SDS011;65911;47.502;19.148;2023-05-19T01:07:10;3.03;;;2.35;;
76978;SDS011;65911;47.502;19.148;2023-05-19T01:10:13;2.17;;;1.97;;
76978;SDS011;65911;47.502;19.148;2023-05-19T01:13:15;2.85;;;2.60;;
76978;SDS011;65911;47.502;19.148;2023-05-19T01:16:24;3.10;;;2.30;;
76978;SDS011;65911;47.502;19.148;2023-05-19T01:26:51;3.60;;;2.47;;
76978;SDS011;65911;47.502;19.148;2023-05-19T01:33:24;2.60;;;2.40;;
76978;SDS011;65911;47.502;19.148;2023-05-19T01:36:28;4.45;;;2.55;;
76978;SDS011;65911;47.502;19.148;2023-05-19T01:39:31;3.17;;;2.38;;
76978;SDS011;65911;47.502;19.148;2023-05-19T01:42:34;3.50;;;2.30;;
76978;SDS011;65911;47.502;19.148;2023-05-19T01:45:39;3.92;;;2.47;;
76978;SDS011;65911;47.502;19.148;2023-05-19T01:48:42;2.97;;;2.45;;
76978;SDS011;65911;47.502;19.148;2023-05-19T01:51:44;4.90;;;2.80;;
76978;SDS011;65911;47.502;19.148;2023-05-19T01:54:46;5.53;;;2.28;;
76978;SDS011;65911;47.502;19.148;2023-05-19T02:01:27;4.80;;;2.40;;
76978;SDS011;65911;47.502;19.148;2023-05-19T02:04:41;5.13;;;2.20;;
76978;SDS011;65911;47.502;19.148;2023-05-19T02:07:51;4.60;;;2.28;;
76978;SDS011;65911;47.502;19.148;2023-05-19T02:11:04;3.22;;;2.47;;
76978;SDS011;65911;47.502;19.148;2023-05-19T02:14:31;2.50;;;2.27;;
76978;SDS011;65911;47.502;19.148;2023-05-19T02:17:34;3.53;;;1.98;;
76978;SDS011;65911;47.502;19.148;2023-05-19T02:20:38;3.45;;;2.25;;
76978;SDS011;65911;47.502;19.148;2023-05-19T02:23:41;2.43;;;2.23;;
76978;SDS011;65911;47.502;19.148;2023-05-19T02:26:43;4.30;;;2.55;;
76978;SDS011;65911;47.502;19.148;2023-05-19T02:29:45;3.47;;;2.40;;
76978;SDS011;65911;47.502;19.148;2023-05-19T02:32:47;3.00;;;2.40;;
76978;SDS011;65911;47.502;19.148;2023-05-19T02:35:50;5.30;;;2.97;;
76978;SDS011;65911;47.502;19.148;2023-05-19T02:38:52;4.38;;;2.90;;
76978;SDS011;65911;47.502;19.148;2023-05-19T02:41:55;3.08;;;2.78;;
76978;SDS011;65911;47.502;19.148;2023-05-19T02:44:57;3.67;;;2.77;;
76978;SDS011;65911;47.502;19.148;2023-05-19T02:48:00;3.20;;;2.10;;
76978;SDS011;65911;47.502;19.148;2023-05-19T02:51:03;3.38;;;2.30;;
76978;SDS011;65911;47.502;19.148;2023-05-19T02:54:05;4.27;;;2.80;;
76978;SDS011;65911;47.502;19.148;2023-05-19T02:57:07;5.47;;;2.45;;
76978;SDS011;65911;47.502;19.148;2023-05-19T03:00:10;4.07;;;3.20;;
76978;SDS011;65911;47.502;19.148;2023-05-19T03:03:12;6.65;;;3.03;;
76978;SDS011;65911;47.502;19.148;2023-05-19T03:06:15;4.75;;;2.58;;
76978;SDS011;65911;47.502;19.148;2023-05-19T03:09:19;3.63;;;3.00;;
76978;SDS011;65911;47.502;19.148;2023-05-19T03:12:21;4.68;;;2.95;;
76978;SDS011;65911;47.502;19.148;2023-05-19T03:15:23;3.50;;;2.47;;
76978;SDS011;65911;47.502;19.148;2023-05-19T03:18:26;4.32;;;3.15;;
76978;SDS011;65911;47.502;19.148;2023-05-19T03:21:28;3.90;;;2.95;;
76978;SDS011;65911;47.502;19.148;2023-05-19T03:24:31;5.73;;;2.63;;
76978;SDS011;65911;47.502;19.148;2023-05-19T03:27:33;4.07;;;3.10;;
76978;SDS011;65911;47.502;19.148;2023-05-19T03:30:35;4.25;;;3.10;;
76978;SDS011;65911;47.502;19.148;2023-05-19T03:33:45;3.95;;;3.15;;
76978;SDS011;65911;47.502;19.148;2023-05-19T03:36:48;3.45;;;3.10;;
76978;SDS011;65911;47.502;19.148;2023-05-19T03:39:51;3.85;;;2.85;;
76978;SDS011;65911;47.502;19.148;2023-05-19T03:42:53;3.95;;;2.78;;
76978;SDS011;65911;47.502;19.148;2023-05-19T03:45:55;4.07;;;2.67;;
76978;SDS011;65911;47.502;19.148;2023-05-19T03:49:18;6.00;;;3.00;;
76978;SDS011;65911;47.502;19.148;2023-05-19T03:52:35;5.30;;;2.80;;
76978;SDS011;65911;47.502;19.148;2023-05-19T03:55:53;5.60;;;2.83;;
76978;SDS011;65911;47.502;19.148;2023-05-19T03:58:57;2.80;;;2.38;;
76978;SDS011;65911;47.502;19.148;2023-05-19T04:02:00;5.05;;;2.38;;
76978;SDS011;65911;47.502;19.148;2023-05-19T04:05:02;8.20;;;2.92;;
76978;SDS011;65911;47.502;19.148;2023-05-19T04:08:08;3.42;;;3.00;;
76978;SDS011;65911;47.502;19.148;2023-05-19T04:11:10;4.25;;;2.85;;
76978;SDS011;65911;47.502;19.148;2023-05-19T04:14:12;5.90;;;2.92;;
76978;SDS011;65911;47.502;19.148;2023-05-19T04:17:15;5.67;;;3.07;;
76978;SDS011;65911;47.502;19.148;2023-05-19T04:20:17;4.68;;;2.88;;
76978;SDS011;65911;47.502;19.148;2023-05-19T04:23:19;3.63;;;2.88;;
76978;SDS011;65911;47.502;19.148;2023-05-19T04:26:21;3.47;;;2.80;;
76978;SDS011;65911;47.502;19.148;2023-05-19T04:29:25;5.43;;;2.88;;
76978;SDS011;65911;47.502;19.148;2023-05-19T04:32:29;3.10;;;2.75;;
76978;SDS011;65911;47.502;19.148;2023-05-19T04:35:32;4.28;;;3.00;;
76978;SDS011;65911;47.502;19.148;2023-05-19T04:38:36;4.88;;;3.30;;
76978;SDS011;65911;47.502;19.148;2023-05-19T04:41:38;4.00;;;3.17;;
76978;SDS011;65911;47.502;19.148;2023-05-19T04:44:42;4.75;;;3.13;;
76978;SDS011;65911;47.502;19.148;2023-05-19T04:47:44;5.90;;;3.37;;
76978;SDS011;65911;47.502;19.148;2023-05-19T04:50:49;4.95;;;3.22;;
76978;SDS011;65911;47.502;19.148;2023-05-19T04:53:56;7.10;;;3.80;;
76978;SDS011;65911;47.502;19.148;2023-05-19T04:56:59;8.10;;;3.70;;
76978;SDS011;65911;47.502;19.148;2023-05-19T05:00:06;6.47;;;3.85;;
76978;SDS011;65911;47.502;19.148;2023-05-19T05:03:23;6.68;;;4.28;;
76978;SDS011;65911;47.502;19.148;2023-05-19T05:06:27;5.85;;;4.15;;
76978;SDS011;65911;47.502;19.148;2023-05-19T05:09:29;7.78;;;4.50;;
76978;SDS011;65911;47.502;19.148;2023-05-19T05:12:33;8.05;;;5.35;;
76978;SDS011;65911;47.502;19.148;2023-05-19T05:15:36;7.20;;;5.07;;
76978;SDS011;65911;47.502;19.148;2023-05-19T05:18:39;9.27;;;6.30;;
76978;SDS011;65911;47.502;19.148;2023-05-19T05:21:45;10.07;;;6.70;;
76978;SDS011;65911;47.502;19.148;2023-05-19T05:24:49;11.40;;;7.05;;
76978;SDS011;65911;47.502;19.148;2023-05-19T05:27:52;11.77;;;7.17;;
76978;SDS011;65911;47.502;19.148;2023-05-19T05:30:55;11.48;;;6.90;;
76978;SDS011;65911;47.502;19.148;2023-05-19T05:33:59;10.60;;;6.78;;
76978;SDS011;65911;47.502;19.148;2023-05-19T05:37:04;12.07;;;8.07;;
76978;SDS011;65911;47.502;19.148;2023-05-19T05:40:08;10.07;;;6.18;;
76978;SDS011;65911;47.502;19.148;2023-05-19T05:43:11;12.45;;;7.60;;
76978;SDS011;65911;47.502;19.148;2023-05-19T05:46:19;11.38;;;7.20;;
76978;SDS011;65911;47.502;19.148;2023-05-19T05:49:22;12.03;;;7.07;;
76978;SDS011;65911;47.502;19.148;2023-05-19T05:52:26;11.32;;;6.53;;
76978;SDS011;65911;47.502;19.148;2023-05-19T05:55:32;11.90;;;7.90;;
76978;SDS011;65911;47.502;19.148;2023-05-19T05:58:35;12.00;;;8.67;;
76978;SDS011;65911;47.502;19.148;2023-05-19T06:01:38;10.48;;;7.32;;
76978;SDS011;65911;47.502;19.148;2023-05-19T06:04:43;13.48;;;7.40;;
76978;SDS011;65911;47.502;19.148;2023-05-19T06:07:46;10.38;;;7.20;;
76978;SDS011;65911;47.502;19.148;2023-05-19T06:10:54;10.55;;;6.72;;
76978;SDS011;65911;47.502;19.148;2023-05-19T06:13:56;11.45;;;7.95;;
76978;SDS011;65911;47.502;19.148;2023-05-19T06:17:21;9.30;;;7.13;;
76978;SDS011;65911;47.502;19.148;2023-05-19T06:20:25;10.90;;;7.23;;
76978;SDS011;65911;47.502;19.148;2023-05-19T06:23:29;9.98;;;6.93;;
76978;SDS011;65911;47.502;19.148;2023-05-19T06:26:34;9.48;;;6.72;;
76978;SDS011;65911;47.502;19.148;2023-05-19T06:29:37;9.50;;;6.90;;
76978;SDS011;65911;47.502;19.148;2023-05-19T06:32:42;10.23;;;7.10;;
76978;SDS011;65911;47.502;19.148;2023-05-19T06:35:44;9.50;;;6.90;;
76978;SDS011;65911;47.502;19.148;2023-05-19T06:38:48;10.65;;;6.25;;
76978;SDS011;65911;47.502;19.148;2023-05-19T06:41:50;8.27;;;5.90;;
76978;SDS011;65911;47.502;19.148;2023-05-19T06:45:22;8.85;;;6.50;;
76978;SDS011;65911;47.502;19.148;2023-05-19T06:48:25;10.30;;;7.93;;
76978;SDS011;65911;47.502;19.148;2023-05-19T06:51:28;9.33;;;6.97;;
76978;SDS011;65911;47.502;19.148;2023-05-19T06:54:31;12.20;;;8.45;;
76978;SDS011;65911;47.502;19.148;2023-05-19T06:57:33;10.80;;;6.75;;
76978;SDS011;65911;47.502;19.148;2023-05-19T07:00:36;11.33;;;8.27;;
76978;SDS011;65911;47.502;19.148;2023-05-19T07:03:41;18.65;;;8.23;;
76978;SDS011;65911;47.502;19.148;2023-05-19T07:06:53;11.95;;;8.75;;
76978;SDS011;65911;47.502;19.148;2023-05-19T07:10:05;11.07;;;7.97;;
76978;SDS011;65911;47.502;19.148;2023-05-19T07:13:08;11.43;;;8.25;;
76978;SDS011;65911;47.502;19.148;2023-05-19T07:16:10;12.57;;;8.77;;
76978;SDS011;65911;47.502;19.148;2023-05-19T07:19:13;14.02;;;8.35;;
76978;SDS011;65911;47.502;19.148;2023-05-19T07:22:18;9.47;;;6.83;;
76978;SDS011;65911;47.502;19.148;2023-05-19T07:25:20;11.35;;;7.38;;
76978;SDS011;65911;47.502;19.148;2023-05-19T07:28:22;10.85;;;7.50;;
76978;SDS011;65911;47.502;19.148;2023-05-19T07:31:25;15.13;;;7.53;;
76978;SDS011;65911;47.502;19.148;2023-05-19T07:34:27;13.27;;;7.68;;
76978;SDS011;65911;47.502;19.148;2023-05-19T07:37:32;9.38;;;6.68;;
76978;SDS011;65911;47.502;19.148;2023-05-19T07:40:35;7.95;;;6.10;;
76978;SDS011;65911;47.502;19.148;2023-05-19T07:43:38;8.75;;;6.78;;
76978;SDS011;65911;47.502;19.148;2023-05-19T07:46:40;9.48;;;6.10;;
76978;SDS011;65911;47.502;19.148;2023-05-19T07:49:43;7.95;;;6.18;;
76978;SDS011;65911;47.502;19.148;2023-05-19T07:52:45;8.43;;;5.53;;
76978;SDS011;65911;47.502;19.148;2023-05-19T07:55:47;6.93;;;5.45;;
76978;SDS011;65911;47.502;19.148;2023-05-19T07:58:50;8.27;;;4.90;;
76978;SDS011;65911;47.502;19.148;2023-05-19T08:02:17;8.33;;;5.37;;
76978;SDS011;65911;47.502;19.148;2023-05-19T08:05:22;8.50;;;4.75;;
76978;SDS011;65911;47.502;19.148;2023-05-19T08:08:34;7.00;;;4.05;;
76978;SDS011;65911;47.502;19.148;2023-05-19T08:11:36;6.55;;;4.07;;
76978;SDS011;65911;47.502;19.148;2023-05-19T08:14:39;6.18;;;4.15;;
76978;SDS011;65911;47.502;19.148;2023-05-19T08:17:41;5.47;;;3.50;;
76978;SDS011;65911;47.502;19.148;2023-05-19T08:20:46;4.75;;;3.20;;
76978;SDS011;65911;47.502;19.148;2023-05-19T08:23:49;5.93;;;3.27;;
76978;SDS011;65911;47.502;19.148;2023-05-19T08:26:53;6.72;;;3.88;;
76978;SDS011;65911;47.502;19.148;2023-05-19T08:29:55;4.80;;;3.33;;
76978;SDS011;65911;47.502;19.148;2023-05-19T08:32:58;5.33;;;3.50;;
76978;SDS011;65911;47.502;19.148;2023-05-19T08:36:01;5.13;;;3.28;;
76978;SDS011;65911;47.502;19.148;2023-05-19T08:39:06;5.40;;;3.55;;
76978;SDS011;65911;47.502;19.148;2023-05-19T08:42:08;7.85;;;3.88;;
76978;SDS011;65911;47.502;19.148;2023-05-19T08:45:11;5.43;;;3.80;;
76978;SDS011;65911;47.502;19.148;2023-05-19T08:48:15;5.35;;;3.97;;
76978;SDS011;65911;47.502;19.148;2023-05-19T08:51:23;4.03;;;3.42;;
76978;SDS011;65911;47.502;19.148;2023-05-19T08:54:36;4.70;;;3.43;;
76978;SDS011;65911;47.502;19.148;2023-05-19T08:57:51;3.92;;;3.20;;
76978;SDS011;65911;47.502;19.148;2023-05-19T09:00:56;4.28;;;3.88;;
76978;SDS011;65911;47.502;19.148;2023-05-19T09:04:02;4.37;;;3.70;;
76978;SDS011;65911;47.502;19.148;2023-05-19T09:07:08;7.03;;;3.38;;
76978;SDS011;65911;47.502;19.148;2023-05-19T09:10:11;4.93;;;3.40;;
76978;SDS011;65911;47.502;19.148;2023-05-19T09:13:15;4.45;;;3.20;;
76978;SDS011;65911;47.502;19.148;2023-05-19T09:16:20;6.13;;;3.53;;
76978;SDS011;65911;47.502;19.148;2023-05-19T09:19:22;6.47;;;3.40;;
76978;SDS011;65911;47.502;19.148;2023-05-19T09:22:30;3.95;;;3.35;;
76978;SDS011;65911;47.502;19.148;2023-05-19T09:25:34;4.20;;;2.93;;
76978;SDS011;65911;47.502;19.148;2023-05-19T09:28:37;3.13;;;2.83;;
76978;SDS011;65911;47.502;19.148;2023-05-19T09:31:52;4.25;;;3.70;;
76978;SDS011;65911;47.502;19.148;2023-05-19T09:34:55;4.67;;;3.40;;
76978;SDS011;65911;47.502;19.148;2023-05-19T09:37:58;3.38;;;3.00;;
76978;SDS011;65911;47.502;19.148;2023-05-19T09:41:02;3.47;;;3.13;;
76978;SDS011;65911;47.502;19.148;2023-05-19T09:44:05;3.72;;;3.30;;
76978;SDS011;65911;47.502;19.148;2023-05-19T09:47:08;4.32;;;3.05;;
76978;SDS011;65911;47.502;19.148;2023-05-19T09:50:18;5.20;;;3.58;;
76978;SDS011;65911;47.502;19.148;2023-05-19T09:53:31;3.80;;;3.10;;
76978;SDS011;65911;47.502;19.148;2023-05-19T09:56:41;4.90;;;2.90;;
76978;SDS011;65911;47.502;19.148;2023-05-19T09:59:46;3.63;;;3.00;;
76978;SDS011;65911;47.502;19.148;2023-05-19T10:02:51;3.28;;;2.80;;
76978;SDS011;65911;47.502;19.148;2023-05-19T10:06:02;2.90;;;2.60;;
76978;SDS011;65911;47.502;19.148;2023-05-19T10:09:06;3.85;;;2.80;;
76978;SDS011;65911;47.502;19.148;2023-05-19T10:12:09;4.32;;;3.20;;
76978;SDS011;65911;47.502;19.148;2023-05-19T10:15:13;4.30;;;2.92;;
76978;SDS011;65911;47.502;19.148;2023-05-19T10:18:16;4.15;;;2.47;;
76978;SDS011;65911;47.502;19.148;2023-05-19T10:21:19;3.20;;;2.80;;
76978;SDS011;65911;47.502;19.148;2023-05-19T10:24:22;3.45;;;2.80;;
76978;SDS011;65911;47.502;19.148;2023-05-19T10:27:24;3.90;;;2.33;;
76978;SDS011;65911;47.502;19.148;2023-05-19T10:30:30;5.20;;;3.80;;
76978;SDS011;65911;47.502;19.148;2023-05-19T10:37:18;3.07;;;2.43;;
76978;SDS011;65911;47.502;19.148;2023-05-19T10:40:32;3.78;;;2.47;;
76978;SDS011;65911;47.502;19.148;2023-05-19T10:46:57;3.03;;;2.72;;
76978;SDS011;65911;47.502;19.148;2023-05-19T10:50:00;4.15;;;3.00;;
76978;SDS011;65911;47.502;19.148;2023-05-19T10:53:02;4.85;;;2.80;;
76978;SDS011;65911;47.502;19.148;2023-05-19T10:56:05;4.28;;;2.85;;
76978;SDS011;65911;47.502;19.148;2023-05-19T10:59:28;3.47;;;2.43;;
76978;SDS011;65911;47.502;19.148;2023-05-19T11:09:38;3.10;;;2.50;;
76978;SDS011;65911;47.502;19.148;2023-05-19T11:12:42;3.83;;;2.50;;
76978;SDS011;65911;47.502;19.148;2023-05-19T11:15:49;3.40;;;3.10;;
76978;SDS011;65911;47.502;19.148;2023-05-19T11:18:52;2.60;;;2.40;;
76978;SDS011;65911;47.502;19.148;2023-05-19T11:21:56;5.25;;;2.65;;
76978;SDS011;65911;47.502;19.148;2023-05-19T11:25:08;3.58;;;2.70;;
76978;SDS011;65911;47.502;19.148;2023-05-19T11:28:11;3.38;;;2.75;;
76978;SDS011;65911;47.502;19.148;2023-05-19T11:31:14;2.57;;;2.37;;
76978;SDS011;65911;47.502;19.148;2023-05-19T11:34:17;5.47;;;2.90;;
76978;SDS011;65911;47.502;19.148;2023-05-19T11:37:19;2.97;;;2.50;;
76978;SDS011;65911;47.502;19.148;2023-05-19T11:40:21;3.10;;;2.60;;
76978;SDS011;65911;47.502;19.148;2023-05-19T11:43:24;3.75;;;2.40;;
76978;SDS011;65911;47.502;19.148;2023-05-19T11:46:27;2.63;;;2.08;;
76978;SDS011;65911;47.502;19.148;2023-05-19T11:49:29;3.65;;;2.58;;
76978;SDS011;65911;47.502;19.148;2023-05-19T11:52:32;4.35;;;2.83;;
76978;SDS011;65911;47.502;19.148;2023-05-19T11:55:34;2.63;;;2.17;;
76978;SDS011;65911;47.502;19.148;2023-05-19T11:58:36;3.65;;;2.50;;
76978;SDS011;65911;47.502;19.148;2023-05-19T12:01:39;3.70;;;2.27;;
76978;SDS011;65911;47.502;19.148;2023-05-19T12:04:41;3.97;;;2.47;;
76978;SDS011;65911;47.502;19.148;2023-05-19T12:07:44;4.65;;;2.55;;
76978;SDS011;65911;47.502;19.148;2023-05-19T12:10:48;2.97;;;2.53;;
76978;SDS011;65911;47.502;19.148;2023-05-19T12:13:51;3.80;;;2.15;;
76978;SDS011;65911;47.502;19.148;2023-05-19T12:16:56;3.28;;;2.42;;
76978;SDS011;65911;47.502;19.148;2023-05-19T12:19:59;2.53;;;2.22;;
76978;SDS011;65911;47.502;19.148;2023-05-19T12:23:02;3.17;;;2.78;;
76978;SDS011;65911;47.502;19.148;2023-05-19T12:26:04;4.05;;;2.60;;
76978;SDS011;65911;47.502;19.148;2023-05-19T12:29:07;2.50;;;2.30;;
76978;SDS011;65911;47.502;19.148;2023-05-19T12:32:09;4.17;;;2.40;;
76978;SDS011;65911;47.502;19.148;2023-05-19T12:35:13;3.75;;;2.28;;
76978;SDS011;65911;47.502;19.148;2023-05-19T12:38:21;4.93;;;2.28;;
76978;SDS011;65911;47.502;19.148;2023-05-19T12:41:24;5.57;;;2.30;;
76978;SDS011;65911;47.502;19.148;2023-05-19T12:44:28;2.58;;;2.33;;
76978;SDS011;65911;47.502;19.148;2023-05-19T12:47:32;3.25;;;2.28;;
76978;SDS011;65911;47.502;19.148;2023-05-19T12:50:36;3.58;;;2.50;;
76978;SDS011;65911;47.502;19.148;2023-05-19T12:53:38;3.78;;;2.40;;
76978;SDS011;65911;47.502;19.148;2023-05-19T12:56:47;2.70;;;2.10;;
76978;SDS011;65911;47.502;19.148;2023-05-19T12:59:50;3.92;;;2.50;;
76978;SDS011;65911;47.502;19.148;2023-05-19T13:03:00;3.63;;;2.60;;
76978;SDS011;65911;47.502;19.148;2023-05-19T13:06:06;2.72;;;2.33;;
76978;SDS011;65911;47.502;19.148;2023-05-19T13:09:09;2.65;;;1.95;;
76978;SDS011;65911;47.502;19.148;2023-05-19T13:12:11;2.93;;;2.23;;
76978;SDS011;65911;47.502;19.148;2023-05-19T13:15:13;3.85;;;2.15;;
76978;SDS011;65911;47.502;19.148;2023-05-19T13:18:16;2.90;;;1.92;;
76978;SDS011;65911;47.502;19.148;2023-05-19T13:21:18;2.70;;;2.13;;
76978;SDS011;65911;47.502;19.148;2023-05-19T13:24:21;4.82;;;2.47;;
76978;SDS011;65911;47.502;19.148;2023-05-19T13:27:23;2.95;;;2.30;;
76978;SDS011;65911;47.502;19.148;2023-05-19T13:30:28;3.10;;;2.80;;
76978;SDS011;65911;47.502;19.148;2023-05-19T13:33:30;2.77;;;2.00;;
76978;SDS011;65911;47.502;19.148;2023-05-19T13:36:32;2.63;;;2.15;;
76978;SDS011;65911;47.502;19.148;2023-05-19T13:39:35;7.25;;;2.50;;
76978;SDS011;65911;47.502;19.148;2023-05-19T13:42:39;2.47;;;2.20;;
76978;SDS011;65911;47.502;19.148;2023-05-19T13:45:41;2.63;;;1.88;;
76978;SDS011;65911;47.502;19.148;2023-05-19T13:48:45;2.15;;;1.90;;
76978;SDS011;65911;47.502;19.148;2023-05-19T13:51:47;2.95;;;2.40;;
76978;SDS011;65911;47.502;19.148;2023-05-19T13:54:50;2.65;;;2.30;;
76978;SDS011;65911;47.502;19.148;2023-05-19T13:57:55;3.53;;;2.25;;
76978;SDS011;65911;47.502;19.148;2023-05-19T14:00:57;4.60;;;2.20;;
76978;SDS011;65911;47.502;19.148;2023-05-19T14:04:01;3.53;;;2.17;;
76978;SDS011;65911;47.502;19.148;2023-05-19T14:07:04;2.28;;;1.98;;
76978;SDS011;65911;47.502;19.148;2023-05-19T14:10:10;3.13;;;2.33;;
76978;SDS011;65911;47.502;19.148;2023-05-19T14:13:12;2.50;;;2.30;;
76978;SDS011;65911;47.502;19.148;2023-05-19T14:16:32;2.20;;;2.00;;
76978;SDS011;65911;47.502;19.148;2023-05-19T14:19:36;2.60;;;2.40;;
76978;SDS011;65911;47.502;19.148;2023-05-19T14:22:38;2.83;;;2.30;;
76978;SDS011;65911;47.502;19.148;2023-05-19T14:25:41;3.03;;;2.05;;
76978;SDS011;65911;47.502;19.148;2023-05-19T14:28:44;5.18;;;2.08;;
76978;SDS011;65911;47.502;19.148;2023-05-19T14:31:46;3.58;;;2.17;;
76978;SDS011;65911;47.502;19.148;2023-05-19T14:34:49;1.57;;;1.43;;
76978;SDS011;65911;47.502;19.148;2023-05-19T14:37:53;2.83;;;2.13;;
76978;SDS011;65911;47.502;19.148;2023-05-19T14:40:56;2.17;;;1.88;;
76978;SDS011;65911;47.502;19.148;2023-05-19T14:43:58;2.40;;;2.20;;
76978;SDS011;65911;47.502;19.148;2023-05-19T14:47:00;2.75;;;1.77;;
76978;SDS011;65911;47.502;19.148;2023-05-19T14:50:03;3.40;;;1.95;;
76978;SDS011;65911;47.502;19.148;2023-05-19T14:53:05;2.80;;;2.00;;
76978;SDS011;65911;47.502;19.148;2023-05-19T14:56:08;2.88;;;1.67;;
76978;SDS011;65911;47.502;19.148;2023-05-19T14:59:10;4.68;;;2.10;;
76978;SDS011;65911;47.502;19.148;2023-05-19T15:02:12;2.53;;;2.05;;
76978;SDS011;65911;47.502;19.148;2023-05-19T15:05:14;4.00;;;1.97;;
76978;SDS011;65911;47.502;19.148;2023-05-19T15:08:17;2.65;;;2.08;;
76978;SDS011;65911;47.502;19.148;2023-05-19T15:11:19;3.90;;;1.95;;
76978;SDS011;65911;47.502;19.148;2023-05-19T15:14:21;2.93;;;1.97;;
76978;SDS011;65911;47.502;19.148;2023-05-19T15:17:24;5.13;;;2.50;;
76978;SDS011;65911;47.502;19.148;2023-05-19T15:20:27;2.20;;;1.95;;
76978;SDS011;65911;47.502;19.148;2023-05-19T15:23:30;5.35;;;2.03;;
76978;SDS011;65911;47.502;19.148;2023-05-19T15:26:33;3.25;;;2.13;;
76978;SDS011;65911;47.502;19.148;2023-05-19T15:29:35;4.47;;;2.03;;
76978;SDS011;65911;47.502;19.148;2023-05-19T15:32:37;4.20;;;1.65;;
76978;SDS011;65911;47.502;19.148;2023-05-19T15:35:39;2.93;;;1.83;;
76978;SDS011;65911;47.502;19.148;2023-05-19T15:38:41;2.90;;;2.25;;
76978;SDS011;65911;47.502;19.148;2023-05-19T15:41:44;4.97;;;2.15;;
76978;SDS011;65911;47.502;19.148;2023-05-19T15:44:46;3.27;;;2.30;;
76978;SDS011;65911;47.502;19.148;2023-05-19T15:47:48;4.60;;;2.20;;
76978;SDS011;65911;47.502;19.148;2023-05-19T15:50:50;2.60;;;2.10;;
76978;SDS011;65911;47.502;19.148;2023-05-19T15:53:53;2.92;;;2.47;;
76978;SDS011;65911;47.502;19.148;2023-05-19T15:56:55;2.78;;;2.00;;
76978;SDS011;65911;47.502;19.148;2023-05-19T15:59:57;2.90;;;2.13;;
76978;SDS011;65911;47.502;19.148;2023-05-19T16:02:59;2.92;;;2.25;;
76978;SDS011;65911;47.502;19.148;2023-05-19T16:06:02;3.63;;;2.30;;
76978;SDS011;65911;47.502;19.148;2023-05-19T16:09:04;3.35;;;2.45;;
76978;SDS011;65911;47.502;19.148;2023-05-19T16:12:06;3.65;;;2.30;;
76978;SDS011;65911;47.502;19.148;2023-05-19T16:15:09;2.80;;;2.23;;
76978;SDS011;65911;47.502;19.148;2023-05-19T16:18:11;2.83;;;2.15;;
76978;SDS011;65911;47.502;19.148;2023-05-19T16:21:14;6.05;;;2.30;;
76978;SDS011;65911;47.502;19.148;2023-05-19T16:24:16;3.38;;;2.53;;
76978;SDS011;65911;47.502;19.148;2023-05-19T16:27:18;3.78;;;2.60;;
76978;SDS011;65911;47.502;19.148;2023-05-19T16:30:20;4.32;;;2.28;;
76978;SDS011;65911;47.502;19.148;2023-05-19T16:33:24;3.33;;;2.47;;
76978;SDS011;65911;47.502;19.148;2023-05-19T16:36:27;3.70;;;1.77;;
76978;SDS011;65911;47.502;19.148;2023-05-19T16:39:29;2.78;;;2.22;;
76978;SDS011;65911;47.502;19.148;2023-05-19T16:42:31;2.72;;;2.40;;
76978;SDS011;65911;47.502;19.148;2023-05-19T16:45:36;3.07;;;2.57;;
76978;SDS011;65911;47.502;19.148;2023-05-19T16:48:39;3.35;;;2.47;;
76978;SDS011;65911;47.502;19.148;2023-05-19T16:51:41;3.17;;;2.10;;
76978;SDS011;65911;47.502;19.148;2023-05-19T16:54:48;3.25;;;2.50;;
76978;SDS011;65911;47.502;19.148;2023-05-19T16:57:50;2.63;;;2.33;;
76978;SDS011;65911;47.502;19.148;2023-05-19T17:00:53;4.55;;;2.60;;
76978;SDS011;65911;47.502;19.148;2023-05-19T17:03:55;3.38;;;2.60;;
76978;SDS011;65911;47.502;19.148;2023-05-19T17:06:57;2.83;;;2.50;;
76978;SDS011;65911;47.502;19.148;2023-05-19T17:10:00;7.25;;;2.85;;
76978;SDS011;65911;47.502;19.148;2023-05-19T17:13:02;4.70;;;2.30;;
76978;SDS011;65911;47.502;19.148;2023-05-19T17:16:04;3.30;;;2.70;;
76978;SDS011;65911;47.502;19.148;2023-05-19T17:19:07;2.58;;;2.25;;
76978;SDS011;65911;47.502;19.148;2023-05-19T17:22:09;2.83;;;2.47;;
76978;SDS011;65911;47.502;19.148;2023-05-19T17:25:11;3.95;;;2.42;;
76978;SDS011;65911;47.502;19.148;2023-05-19T17:28:14;2.97;;;1.92;;
76978;SDS011;65911;47.502;19.148;2023-05-19T17:31:16;2.90;;;2.40;;
76978;SDS011;65911;47.502;19.148;2023-05-19T17:34:18;3.30;;;2.53;;
76978;SDS011;65911;47.502;19.148;2023-05-19T17:37:20;2.90;;;2.40;;
76978;SDS011;65911;47.502;19.148;2023-05-19T17:40:26;4.63;;;2.72;;
76978;SDS011;65911;47.502;19.148;2023-05-19T17:43:29;4.05;;;2.50;;
76978;SDS011;65911;47.502;19.148;2023-05-19T17:46:31;4.87;;;2.37;;
76978;SDS011;65911;47.502;19.148;2023-05-19T17:49:37;4.95;;;2.53;;
76978;SDS011;65911;47.502;19.148;2023-05-19T17:52:41;4.40;;;2.40;;
76978;SDS011;65911;47.502;19.148;2023-05-19T17:55:45;3.38;;;2.90;;
76978;SDS011;65911;47.502;19.148;2023-05-19T17:58:53;2.67;;;2.47;;
76978;SDS011;65911;47.502;19.148;2023-05-19T18:01:55;5.55;;;3.80;;
76978;SDS011;65911;47.502;19.148;2023-05-19T18:04:58;5.40;;;3.20;;
76978;SDS011;65911;47.502;19.148;2023-05-19T18:08:01;6.20;;;2.70;;
76978;SDS011;65911;47.502;19.148;2023-05-19T18:11:07;5.88;;;3.10;;
76978;SDS011;65911;47.502;19.148;2023-05-19T18:14:14;5.32;;;3.17;;
76978;SDS011;65911;47.502;19.148;2023-05-19T18:17:16;8.83;;;3.43;;
76978;SDS011;65911;47.502;19.148;2023-05-19T18:20:18;6.47;;;3.15;;
76978;SDS011;65911;47.502;19.148;2023-05-19T18:23:21;6.25;;;3.60;;
76978;SDS011;65911;47.502;19.148;2023-05-19T18:26:23;5.32;;;3.70;;
76978;SDS011;65911;47.502;19.148;2023-05-19T18:29:25;5.55;;;3.40;;
76978;SDS011;65911;47.502;19.148;2023-05-19T18:32:27;7.07;;;3.70;;
76978;SDS011;65911;47.502;19.148;2023-05-19T18:35:30;5.32;;;3.78;;
76978;SDS011;65911;47.502;19.148;2023-05-19T18:38:32;5.00;;;3.50;;